sensor_id;sensor_type;location;lat;lon;timestamp;P1;durP1;ratioP1;P2;durP2;ratioP2
70297;SDS011;57702;44.420;20.298;2023-04-29T15:03:25;0.30;;;0.30;;
70297;SDS011;57702;44.420;20.298;2023-04-29T15:05:51;4.22;;;1.08;;
70297;SDS011;57702;44.420;20.298;2023-04-29T15:08:17;0.30;;;0.30;;
70297;SDS011;57702;44.420;20.298;2023-04-29T15:10:44;0.35;;;0.35;;
70297;SDS011;57702;44.420;20.298;2023-04-29T15:13:11;0.75;;;0.50;;
70297;SDS011;57702;44.420;20.298;2023-04-29T15:15:38;0.32;;;0.32;;
70297;SDS011;57702;44.420;20.298;2023-04-29T15:18:04;1.98;;;1.02;;
70297;SDS011;57702;44.420;20.298;2023-04-29T15:20:32;0.70;;;0.57;;
70297;SDS011;57702;44.420;20.298;2023-04-29T15:22:58;0.88;;;0.47;;
70297;SDS011;57702;44.420;20.298;2023-04-29T15:28:34;0.40;;;0.40;;
70297;SDS011;57702;44.420;20.298;2023-04-29T15:31:23;0.47;;;0.47;;
70297;SDS011;57702;44.420;20.298;2023-04-29T15:34:09;4.22;;;0.77;;
70297;SDS011;57702;44.420;20.298;2023-04-29T15:36:36;5.82;;;0.60;;
70297;SDS011;57702;44.420;20.298;2023-04-29T15:39:02;4.20;;;0.60;;
70297;SDS011;57702;44.420;20.298;2023-04-29T15:41:28;0.65;;;0.55;;
70297;SDS011;57702;44.420;20.298;2023-04-29T15:43:55;2.72;;;0.70;;
70297;SDS011;57702;44.420;20.298;2023-04-29T15:46:22;0.40;;;0.40;;
70297;SDS011;57702;44.420;20.298;2023-04-29T15:48:48;3.25;;;0.60;;
70297;SDS011;57702;44.420;20.298;2023-04-29T15:51:14;0.40;;;0.40;;
70297;SDS011;57702;44.420;20.298;2023-04-29T15:53:41;1.60;;;0.40;;
70297;SDS011;57702;44.420;20.298;2023-04-29T15:56:10;3.03;;;0.82;;
70297;SDS011;57702;44.420;20.298;2023-04-29T15:58:37;3.05;;;0.40;;
70297;SDS011;57702;44.420;20.298;2023-04-29T16:01:03;0.50;;;0.50;;
70297;SDS011;57702;44.420;20.298;2023-04-29T16:03:29;1.30;;;0.90;;
70297;SDS011;57702;44.420;20.298;2023-04-29T16:05:56;1.30;;;0.73;;
70297;SDS011;57702;44.420;20.298;2023-04-29T16:08:22;0.40;;;0.40;;
70297;SDS011;57702;44.420;20.298;2023-04-29T16:10:48;0.30;;;0.30;;
70297;SDS011;57702;44.420;20.298;2023-04-29T16:13:14;2.30;;;0.77;;
70297;SDS011;57702;44.420;20.298;2023-04-29T16:15:40;2.47;;;0.95;;
70297;SDS011;57702;44.420;20.298;2023-04-29T16:18:07;6.22;;;1.67;;
70297;SDS011;57702;44.420;20.298;2023-04-29T16:20:33;1.55;;;0.82;;
70297;SDS011;57702;44.420;20.298;2023-04-29T16:23:00;5.15;;;0.65;;
70297;SDS011;57702;44.420;20.298;2023-04-29T16:25:26;1.25;;;0.47;;
70297;SDS011;57702;44.420;20.298;2023-04-29T16:27:52;3.03;;;0.57;;
70297;SDS011;57702;44.420;20.298;2023-04-29T16:30:19;0.30;;;0.30;;
70297;SDS011;57702;44.420;20.298;2023-04-29T16:32:45;0.50;;;0.50;;
70297;SDS011;57702;44.420;20.298;2023-04-29T16:35:12;1.00;;;0.40;;
70297;SDS011;57702;44.420;20.298;2023-04-29T16:37:38;0.32;;;0.32;;
70297;SDS011;57702;44.420;20.298;2023-04-29T16:40:04;4.18;;;0.30;;
70297;SDS011;57702;44.420;20.298;2023-04-29T16:42:31;2.33;;;0.88;;
70297;SDS011;57702;44.420;20.298;2023-04-29T16:44:57;2.80;;;0.95;;
70297;SDS011;57702;44.420;20.298;2023-04-29T16:47:23;1.13;;;0.40;;
70297;SDS011;57702;44.420;20.298;2023-04-29T16:49:49;0.50;;;0.50;;
70297;SDS011;57702;44.420;20.298;2023-04-29T16:52:16;1.08;;;0.70;;
70297;SDS011;57702;44.420;20.298;2023-04-29T16:54:42;0.35;;;0.32;;
70297;SDS011;57702;44.420;20.298;2023-04-29T16:57:08;0.47;;;0.47;;
70297;SDS011;57702;44.420;20.298;2023-04-29T16:59:34;0.88;;;0.73;;
70297;SDS011;57702;44.420;20.298;2023-04-29T17:02:01;1.48;;;0.95;;
70297;SDS011;57702;44.420;20.298;2023-04-29T17:04:29;2.17;;;0.90;;
70297;SDS011;57702;44.420;20.298;2023-04-29T17:06:55;2.20;;;0.63;;
70297;SDS011;57702;44.420;20.298;2023-04-29T17:09:21;1.48;;;0.68;;
70297;SDS011;57702;44.420;20.298;2023-04-29T17:11:50;0.82;;;0.82;;
70297;SDS011;57702;44.420;20.298;2023-04-29T17:14:16;0.95;;;0.63;;
70297;SDS011;57702;44.420;20.298;2023-04-29T17:16:42;4.95;;;1.13;;
70297;SDS011;57702;44.420;20.298;2023-04-29T17:19:09;2.28;;;0.77;;
70297;SDS011;57702;44.420;20.298;2023-04-29T17:21:35;1.75;;;0.77;;
70297;SDS011;57702;44.420;20.298;2023-04-29T17:24:01;0.85;;;0.35;;
70297;SDS011;57702;44.420;20.298;2023-04-29T17:26:27;0.80;;;0.80;;
70297;SDS011;57702;44.420;20.298;2023-04-29T17:28:55;0.70;;;0.70;;
70297;SDS011;57702;44.420;20.298;2023-04-29T17:31:22;0.15;;;0.15;;
70297;SDS011;57702;44.420;20.298;2023-04-29T17:33:54;0.90;;;0.65;;
70297;SDS011;57702;44.420;20.298;2023-04-29T17:36:29;0.50;;;0.40;;
70297;SDS011;57702;44.420;20.298;2023-04-29T17:38:56;0.93;;;0.93;;
70297;SDS011;57702;44.420;20.298;2023-04-29T17:41:23;7.75;;;1.42;;
70297;SDS011;57702;44.420;20.298;2023-04-29T17:43:49;10.65;;;1.83;;
70297;SDS011;57702;44.420;20.298;2023-04-29T17:46:16;1.55;;;1.17;;
70297;SDS011;57702;44.420;20.298;2023-04-29T17:48:42;11.05;;;3.00;;
70297;SDS011;57702;44.420;20.298;2023-04-29T17:51:08;38.58;;;6.00;;
70297;SDS011;57702;44.420;20.298;2023-04-29T17:53:34;28.63;;;7.28;;
70297;SDS011;57702;44.420;20.298;2023-04-29T17:56:00;83.97;;;13.73;;
70297;SDS011;57702;44.420;20.298;2023-04-29T17:58:27;31.58;;;8.38;;
70297;SDS011;57702;44.420;20.298;2023-04-29T18:00:54;19.70;;;5.18;;
70297;SDS011;57702;44.420;20.298;2023-04-29T18:03:20;17.80;;;5.18;;
70297;SDS011;57702;44.420;20.298;2023-04-29T18:05:47;41.40;;;5.75;;
70297;SDS011;57702;44.420;20.298;2023-04-29T18:08:14;31.60;;;6.35;;
70297;SDS011;57702;44.420;20.298;2023-04-29T18:10:40;55.53;;;10.75;;
70297;SDS011;57702;44.420;20.298;2023-04-29T18:13:06;65.18;;;15.88;;
70297;SDS011;57702;44.420;20.298;2023-04-29T18:15:32;43.90;;;10.57;;
70297;SDS011;57702;44.420;20.298;2023-04-29T18:17:58;37.72;;;9.18;;
70297;SDS011;57702;44.420;20.298;2023-04-29T18:20:25;430.58;;;76.45;;
70297;SDS011;57702;44.420;20.298;2023-04-29T18:22:51;254.15;;;61.95;;
70297;SDS011;57702;44.420;20.298;2023-04-29T18:25:17;256.77;;;65.47;;
70297;SDS011;57702;44.420;20.298;2023-04-29T18:27:43;157.98;;;45.58;;
70297;SDS011;57702;44.420;20.298;2023-04-29T18:30:09;103.85;;;30.20;;
70297;SDS011;57702;44.420;20.298;2023-04-29T18:32:37;41.10;;;16.02;;
70297;SDS011;57702;44.420;20.298;2023-04-29T18:35:03;51.78;;;15.25;;
70297;SDS011;57702;44.420;20.298;2023-04-29T18:37:30;18.50;;;11.60;;
70297;SDS011;57702;44.420;20.298;2023-04-29T18:39:56;32.53;;;8.80;;
70297;SDS011;57702;44.420;20.298;2023-04-29T18:42:22;21.52;;;7.50;;
70297;SDS011;57702;44.420;20.298;2023-04-29T18:44:48;56.08;;;12.30;;
70297;SDS011;57702;44.420;20.298;2023-04-29T18:47:15;42.90;;;13.95;;
70297;SDS011;57702;44.420;20.298;2023-04-29T18:49:41;16.33;;;9.15;;
70297;SDS011;57702;44.420;20.298;2023-04-29T18:52:07;6.18;;;4.25;;
70297;SDS011;57702;44.420;20.298;2023-04-29T18:54:34;15.52;;;3.60;;
70297;SDS011;57702;44.420;20.298;2023-04-29T18:57:00;5.80;;;2.75;;
70297;SDS011;57702;44.420;20.298;2023-04-29T19:02:33;58.78;;;13.18;;
70297;SDS011;57702;44.420;20.298;2023-04-29T19:05:02;29.17;;;8.85;;
70297;SDS011;57702;44.420;20.298;2023-04-29T19:10:21;15.25;;;6.50;;
70297;SDS011;57702;44.420;20.298;2023-04-29T19:12:47;26.80;;;7.97;;
70297;SDS011;57702;44.420;20.298;2023-04-29T19:15:13;21.13;;;8.27;;
70297;SDS011;57702;44.420;20.298;2023-04-29T19:17:41;20.17;;;6.78;;
70297;SDS011;57702;44.420;20.298;2023-04-29T19:20:08;9.77;;;5.43;;
70297;SDS011;57702;44.420;20.298;2023-04-29T19:22:34;11.00;;;3.25;;
70297;SDS011;57702;44.420;20.298;2023-04-29T19:25:01;4.43;;;1.88;;
70297;SDS011;57702;44.420;20.298;2023-04-29T19:27:28;3.55;;;2.83;;
70297;SDS011;57702;44.420;20.298;2023-04-29T19:29:54;11.95;;;3.85;;
70297;SDS011;57702;44.420;20.298;2023-04-29T19:32:20;11.23;;;4.70;;
70297;SDS011;57702;44.420;20.298;2023-04-29T19:34:47;11.45;;;5.05;;
70297;SDS011;57702;44.420;20.298;2023-04-29T19:37:13;3.03;;;2.33;;
70297;SDS011;57702;44.420;20.298;2023-04-29T19:39:39;4.28;;;1.88;;
70297;SDS011;57702;44.420;20.298;2023-04-29T19:42:05;7.55;;;2.05;;
70297;SDS011;57702;44.420;20.298;2023-04-29T19:44:31;10.38;;;4.53;;
70297;SDS011;57702;44.420;20.298;2023-04-29T19:46:58;7.78;;;2.35;;
70297;SDS011;57702;44.420;20.298;2023-04-29T19:49:24;16.17;;;4.82;;
70297;SDS011;57702;44.420;20.298;2023-04-29T19:51:50;9.75;;;5.22;;
70297;SDS011;57702;44.420;20.298;2023-04-29T19:54:17;13.32;;;3.72;;
70297;SDS011;57702;44.420;20.298;2023-04-29T19:56:43;7.55;;;3.78;;
70297;SDS011;57702;44.420;20.298;2023-04-29T19:59:09;13.30;;;5.00;;
70297;SDS011;57702;44.420;20.298;2023-04-29T20:01:39;15.77;;;5.28;;
70297;SDS011;57702;44.420;20.298;2023-04-29T20:04:05;13.10;;;4.88;;
70297;SDS011;57702;44.420;20.298;2023-04-29T20:06:31;4.63;;;3.33;;
70297;SDS011;57702;44.420;20.298;2023-04-29T20:08:59;2.78;;;2.25;;
70297;SDS011;57702;44.420;20.298;2023-04-29T20:11:25;3.40;;;2.13;;
70297;SDS011;57702;44.420;20.298;2023-04-29T20:13:51;5.30;;;2.70;;
70297;SDS011;57702;44.420;20.298;2023-04-29T20:16:17;5.57;;;2.42;;
70297;SDS011;57702;44.420;20.298;2023-04-29T20:18:44;6.68;;;2.83;;
70297;SDS011;57702;44.420;20.298;2023-04-29T20:21:11;6.38;;;3.25;;
70297;SDS011;57702;44.420;20.298;2023-04-29T20:23:37;6.68;;;2.97;;
70297;SDS011;57702;44.420;20.298;2023-04-29T20:26:03;33.50;;;6.57;;
70297;SDS011;57702;44.420;20.298;2023-04-29T20:28:29;7.50;;;4.47;;
70297;SDS011;57702;44.420;20.298;2023-04-29T20:30:55;3.85;;;2.47;;
70297;SDS011;57702;44.420;20.298;2023-04-29T20:33:22;5.25;;;2.85;;
70297;SDS011;57702;44.420;20.298;2023-04-29T20:35:48;12.07;;;3.30;;
70297;SDS011;57702;44.420;20.298;2023-04-29T20:38:15;18.55;;;2.60;;
70297;SDS011;57702;44.420;20.298;2023-04-29T20:40:41;12.02;;;4.22;;
70297;SDS011;57702;44.420;20.298;2023-04-29T20:43:07;15.20;;;5.22;;
70297;SDS011;57702;44.420;20.298;2023-04-29T20:45:35;30.98;;;5.68;;
70297;SDS011;57702;44.420;20.298;2023-04-29T20:48:01;11.65;;;3.47;;
70297;SDS011;57702;44.420;20.298;2023-04-29T20:50:28;5.95;;;3.42;;
70297;SDS011;57702;44.420;20.298;2023-04-29T20:52:54;12.85;;;4.00;;
70297;SDS011;57702;44.420;20.298;2023-04-29T20:55:20;15.25;;;3.10;;
70297;SDS011;57702;44.420;20.298;2023-04-29T20:57:47;14.68;;;4.03;;
70297;SDS011;57702;44.420;20.298;2023-04-29T21:00:13;1.63;;;1.48;;
70297;SDS011;57702;44.420;20.298;2023-04-29T21:02:39;10.85;;;2.80;;
70297;SDS011;57702;44.420;20.298;2023-04-29T21:05:05;21.63;;;2.30;;
70297;SDS011;57702;44.420;20.298;2023-04-29T21:07:35;23.15;;;3.63;;
70297;SDS011;57702;44.420;20.298;2023-04-29T21:10:01;3.45;;;2.10;;
70297;SDS011;57702;44.420;20.298;2023-04-29T21:12:27;4.13;;;1.92;;
70297;SDS011;57702;44.420;20.298;2023-04-29T21:14:53;4.47;;;2.38;;
70297;SDS011;57702;44.420;20.298;2023-04-29T21:17:19;6.05;;;1.45;;
70297;SDS011;57702;44.420;20.298;2023-04-29T21:19:46;3.53;;;1.45;;
70297;SDS011;57702;44.420;20.298;2023-04-29T21:22:12;5.90;;;1.98;;
70297;SDS011;57702;44.420;20.298;2023-04-29T21:24:38;4.25;;;2.30;;
70297;SDS011;57702;44.420;20.298;2023-04-29T21:27:04;8.43;;;2.25;;
70297;SDS011;57702;44.420;20.298;2023-04-29T21:29:30;5.97;;;2.15;;
70297;SDS011;57702;44.420;20.298;2023-04-29T21:31:58;19.02;;;3.92;;
70297;SDS011;57702;44.420;20.298;2023-04-29T21:34:25;22.65;;;6.75;;
70297;SDS011;57702;44.420;20.298;2023-04-29T21:36:51;12.48;;;5.40;;
70297;SDS011;57702;44.420;20.298;2023-04-29T21:39:17;12.23;;;3.88;;
70297;SDS011;57702;44.420;20.298;2023-04-29T21:41:43;5.90;;;3.92;;
70297;SDS011;57702;44.420;20.298;2023-04-29T21:44:09;3.10;;;2.60;;
70297;SDS011;57702;44.420;20.298;2023-04-29T21:46:36;3.63;;;2.05;;
70297;SDS011;57702;44.420;20.298;2023-04-29T21:49:03;5.05;;;2.28;;
70297;SDS011;57702;44.420;20.298;2023-04-29T21:51:29;3.97;;;2.33;;
70297;SDS011;57702;44.420;20.298;2023-04-29T21:53:56;13.20;;;1.95;;
70297;SDS011;57702;44.420;20.298;2023-04-29T21:56:22;3.40;;;2.17;;
70297;SDS011;57702;44.420;20.298;2023-04-29T21:58:48;10.48;;;3.90;;
70297;SDS011;57702;44.420;20.298;2023-04-29T22:01:14;9.75;;;4.50;;
70297;SDS011;57702;44.420;20.298;2023-04-29T22:03:54;16.00;;;4.70;;
70297;SDS011;57702;44.420;20.298;2023-04-29T22:06:21;11.18;;;4.72;;
70297;SDS011;57702;44.420;20.298;2023-04-29T22:08:47;9.43;;;4.18;;
70297;SDS011;57702;44.420;20.298;2023-04-29T22:11:13;10.18;;;4.20;;
70297;SDS011;57702;44.420;20.298;2023-04-29T22:13:40;9.70;;;2.60;;
70297;SDS011;57702;44.420;20.298;2023-04-29T22:16:06;11.13;;;2.78;;
70297;SDS011;57702;44.420;20.298;2023-04-29T22:18:33;8.98;;;3.92;;
70297;SDS011;57702;44.420;20.298;2023-04-29T22:20:59;18.67;;;5.80;;
70297;SDS011;57702;44.420;20.298;2023-04-29T22:23:25;22.85;;;4.90;;
70297;SDS011;57702;44.420;20.298;2023-04-29T22:25:51;7.32;;;3.30;;
70297;SDS011;57702;44.420;20.298;2023-04-29T22:28:17;7.88;;;2.72;;
70297;SDS011;57702;44.420;20.298;2023-04-29T22:30:43;27.77;;;5.13;;
70297;SDS011;57702;44.420;20.298;2023-04-29T22:33:11;7.22;;;2.92;;
70297;SDS011;57702;44.420;20.298;2023-04-29T22:35:37;4.28;;;2.10;;
70297;SDS011;57702;44.420;20.298;2023-04-29T22:38:04;6.43;;;2.15;;
70297;SDS011;57702;44.420;20.298;2023-04-29T22:40:30;12.93;;;2.92;;
70297;SDS011;57702;44.420;20.298;2023-04-29T22:42:56;3.08;;;1.50;;
70297;SDS011;57702;44.420;20.298;2023-04-29T22:45:22;1.58;;;1.45;;
70297;SDS011;57702;44.420;20.298;2023-04-29T22:47:48;9.73;;;2.58;;
70297;SDS011;57702;44.420;20.298;2023-04-29T22:50:15;15.65;;;3.97;;
70297;SDS011;57702;44.420;20.298;2023-04-29T22:52:41;6.45;;;1.73;;
70297;SDS011;57702;44.420;20.298;2023-04-29T22:55:07;8.27;;;2.03;;
70297;SDS011;57702;44.420;20.298;2023-04-29T22:57:33;7.63;;;2.22;;
70297;SDS011;57702;44.420;20.298;2023-04-29T23:00:00;11.15;;;3.60;;
70297;SDS011;57702;44.420;20.298;2023-04-29T23:02:26;11.13;;;5.20;;
70297;SDS011;57702;44.420;20.298;2023-04-29T23:04:56;10.10;;;3.67;;
70297;SDS011;57702;44.420;20.298;2023-04-29T23:07:23;8.60;;;3.45;;
70297;SDS011;57702;44.420;20.298;2023-04-29T23:09:49;3.63;;;2.33;;
70297;SDS011;57702;44.420;20.298;2023-04-29T23:12:16;8.07;;;3.20;;
70297;SDS011;57702;44.420;20.298;2023-04-29T23:14:43;4.00;;;2.47;;
70297;SDS011;57702;44.420;20.298;2023-04-29T23:17:10;8.80;;;3.10;;
70297;SDS011;57702;44.420;20.298;2023-04-29T23:19:36;2.25;;;2.05;;
70297;SDS011;57702;44.420;20.298;2023-04-29T23:22:02;16.42;;;2.97;;
70297;SDS011;57702;44.420;20.298;2023-04-29T23:24:31;15.07;;;4.00;;
70297;SDS011;57702;44.420;20.298;2023-04-29T23:26:59;7.25;;;3.33;;
70297;SDS011;57702;44.420;20.298;2023-04-29T23:29:27;3.50;;;2.67;;
70297;SDS011;57702;44.420;20.298;2023-04-29T23:31:55;10.70;;;5.32;;
70297;SDS011;57702;44.420;20.298;2023-04-29T23:34:21;11.98;;;4.63;;
70297;SDS011;57702;44.420;20.298;2023-04-29T23:36:47;5.38;;;2.83;;
70297;SDS011;57702;44.420;20.298;2023-04-29T23:39:15;5.03;;;2.80;;
70297;SDS011;57702;44.420;20.298;2023-04-29T23:41:41;20.92;;;4.43;;
70297;SDS011;57702;44.420;20.298;2023-04-29T23:44:08;9.88;;;4.55;;
70297;SDS011;57702;44.420;20.298;2023-04-29T23:46:35;19.77;;;5.75;;
70297;SDS011;57702;44.420;20.298;2023-04-29T23:49:03;18.27;;;6.07;;
70297;SDS011;57702;44.420;20.298;2023-04-29T23:51:30;23.83;;;5.30;;
70297;SDS011;57702;44.420;20.298;2023-04-29T23:53:56;18.55;;;4.28;;
70297;SDS011;57702;44.420;20.298;2023-04-29T23:56:24;15.48;;;4.90;;
70297;SDS011;57702;44.420;20.298;2023-04-29T23:58:53;12.18;;;5.22;;
